createdAt,value
2022-08-03T00:06:42.938Z,146
2022-08-03T00:26:43.072Z,150
2022-08-03T00:46:35.985Z,147
2022-08-03T01:06:36.251Z,146
2022-08-03T01:26:36.130Z,146
2022-08-03T01:46:36.118Z,146
2022-08-03T02:06:59.018Z,145
2022-08-03T02:26:43.171Z,144
2022-08-03T03:06:36.209Z,147
2022-08-03T03:26:39.426Z,146
2022-08-03T03:46:36.261Z,145
2022-08-03T04:06:36.263Z,147
2022-08-03T04:26:43.315Z,147
2022-08-03T04:46:36.301Z,148
2022-08-03T05:06:36.329Z,151
2022-08-03T05:26:36.408Z,151
2022-08-03T05:46:36.585Z,157
2022-08-03T06:06:36.394Z,159
2022-08-03T06:26:36.420Z,160
2022-08-03T06:46:36.428Z,165
2022-08-03T07:06:36.436Z,166
2022-08-03T07:26:36.453Z,163
2022-08-03T07:46:36.733Z,168
2022-08-03T08:06:36.475Z,166
2022-08-03T08:26:36.502Z,164
2022-08-03T08:46:36.508Z,162
2022-08-03T09:06:36.434Z,170
2022-08-03T09:46:36.465Z,169
2022-08-03T10:06:36.563Z,173
2022-08-03T10:26:36.590Z,172
2022-08-03T10:46:38.351Z,175
2022-08-03T11:06:37.319Z,160
2022-08-03T11:26:36.606Z,175
2022-08-03T11:46:36.632Z,167
2022-08-03T14:46:36.745Z,147
2022-08-03T17:46:36.831Z,153
2022-08-03T18:06:36.834Z,152
2022-08-03T18:26:36.857Z,152
2022-08-03T19:26:36.888Z,147
2022-08-03T19:46:36.794Z,143
2022-08-03T20:06:43.933Z,146
2022-08-03T20:26:36.951Z,145
2022-08-03T20:46:53.053Z,146
2022-08-03T21:06:37.004Z,146
2022-08-03T21:26:36.993Z,148
2022-08-03T21:46:37.023Z,146
2022-08-03T22:06:44.182Z,151
2022-08-03T22:26:37.021Z,147
2022-08-03T23:26:44.193Z,152
2022-08-03T23:46:37.095Z,152
